Kugluktuk Airport
CYCO : now visible

Airfield :











YOU CAN JOIN US ON...

 
LOGIN :

Register | Disclaimer

   EN    FR    IT 

 









Legend :    VFR   Marginal VFR   IFR   Intensive IFR   Very Intensive IFR
Visi :
Ceiling :
>= 8 km
>= 3000ft
5 to 8 km
1000 to 3000 ft
1500m to 5 km
500 to 1000 ft
800 to 1500m
200 to 500 ft
< 800m
< 200 ft
Symbols :   Thunderstorms  Fog  Heavy snow  Heavy precipitations  Wind > 20 kt






- Airport Elevation : 74 ft
- IATA code : YCO


CYCO - Kugluktuk

CURRENT METAR :
  • 150200Z 27009KT 12SM -SN SCT013 BKN020 M24/M27 A2989 RMK SC3SC4 SLP127

EXPIRED METARs :
  • 150100Z 26010KT 15SM -SN OVC018 M24/M27 A2989 RMK SC8 SLP127
  • 150000Z 27011KT 15SM -SN BKN017 M24/M27 A2990 RMK SC7 SLP129
  • 142300Z 26013KT 15SM -SN BKN019 BKN040 M24/M27 A2990 RMK SC7SC1 SC TR SLP129

TAF TAF CYCO
Valid from the 15 at 01:00 until the 15 at 13:00 UTC


150038Z 1501/1513 27012KT P6SM -SN BKN020
TEMPO 1501/1503 P6SM NSW SCT020
FM150300 24010KT P6SM FEW025 RMK NXT FCST BY 150700Z



MET'MAP, your aeronautical weather chart ! - Copyright ORBIFLY December 2007 - Disclaimer

ORBIFLY MET'MAP TEAM :

Programming & Development : Alexandra Zaïnal
Concept & original design : Baudouin d'Aumeries
Assistance for programming : Marc-Olivier Méhu
Technical & hardware support : Manuel Goepfert

Contact : metmap@orbifly.com




SOURCES & CREDITS :

   NOAA       Earth
Advisory